sensor_id;sensor_type;location;lat;lon;timestamp;temperature;humidity
21489;DHT22;10906;45.194;5.684;2022-07-15T05:21:13;23.20;63.90
21489;DHT22;10906;45.194;5.684;2022-07-15T05:23:58;23.20;65.10
21489;DHT22;10906;45.194;5.684;2022-07-15T05:26:42;23.30;64.30
21489;DHT22;10906;45.194;5.684;2022-07-15T05:29:26;23.30;64.00
21489;DHT22;10906;45.194;5.684;2022-07-15T05:32:11;23.40;64.20
21489;DHT22;10906;45.194;5.684;2022-07-15T05:34:58;23.40;64.10
21489;DHT22;10906;45.194;5.684;2022-07-15T05:37:53;23.40;66.00
21489;DHT22;10906;45.194;5.684;2022-07-15T05:40:37;23.40;64.80
21489;DHT22;10906;45.194;5.684;2022-07-15T05:43:24;23.50;64.00
21489;DHT22;10906;45.194;5.684;2022-07-15T05:46:09;23.60;64.00
21489;DHT22;10906;45.194;5.684;2022-07-15T05:48:53;23.60;64.00
21489;DHT22;10906;45.194;5.684;2022-07-15T05:51:38;23.70;64.10
21489;DHT22;10906;45.194;5.684;2022-07-15T05:54:23;23.70;64.00
21489;DHT22;10906;45.194;5.684;2022-07-15T05:57:07;23.70;64.00
21489;DHT22;10906;45.194;5.684;2022-07-15T05:59:52;23.90;64.00
21489;DHT22;10906;45.194;5.684;2022-07-15T06:02:39;23.90;64.00
21489;DHT22;10906;45.194;5.684;2022-07-15T06:05:26;23.90;64.40
21489;DHT22;10906;45.194;5.684;2022-07-15T06:08:18;24.00;63.80
21489;DHT22;10906;45.194;5.684;2022-07-15T06:11:05;24.00;63.00
21489;DHT22;10906;45.194;5.684;2022-07-15T06:13:52;24.10;62.90
21489;DHT22;10906;45.194;5.684;2022-07-15T06:16:46;24.20;63.60
21489;DHT22;10906;45.194;5.684;2022-07-15T06:19:31;24.30;62.90
21489;DHT22;10906;45.194;5.684;2022-07-15T06:22:21;24.40;62.40
21489;DHT22;10906;45.194;5.684;2022-07-15T06:25:05;24.50;62.70
21489;DHT22;10906;45.194;5.684;2022-07-15T06:27:50;24.50;62.00
21489;DHT22;10906;45.194;5.684;2022-07-15T06:30:35;24.60;61.60
21489;DHT22;10906;45.194;5.684;2022-07-15T06:33:19;24.70;61.60
21489;DHT22;10906;45.194;5.684;2022-07-15T06:36:06;24.90;60.90
21489;DHT22;10906;45.194;5.684;2022-07-15T06:38:58;24.90;60.90
21489;DHT22;10906;45.194;5.684;2022-07-15T06:41:43;24.90;60.40
21489;DHT22;10906;45.194;5.684;2022-07-15T06:44:35;25.00;60.50
21489;DHT22;10906;45.194;5.684;2022-07-15T06:47:20;25.10;60.20
21489;DHT22;10906;45.194;5.684;2022-07-15T06:50:05;25.20;59.90
21489;DHT22;10906;45.194;5.684;2022-07-15T06:52:57;25.30;60.10
21489;DHT22;10906;45.194;5.684;2022-07-15T06:55:44;25.30;60.00
21489;DHT22;10906;45.194;5.684;2022-07-15T06:58:28;25.40;59.80
21489;DHT22;10906;45.194;5.684;2022-07-15T07:01:13;25.60;60.00
21489;DHT22;10906;45.194;5.684;2022-07-15T07:03:57;25.60;59.70
21489;DHT22;10906;45.194;5.684;2022-07-15T07:06:44;25.80;59.40
21489;DHT22;10906;45.194;5.684;2022-07-15T07:09:36;25.90;59.10
21489;DHT22;10906;45.194;5.684;2022-07-15T07:12:20;26.10;59.00
21489;DHT22;10906;45.194;5.684;2022-07-15T07:15:08;26.20;59.00
21489;DHT22;10906;45.194;5.684;2022-07-15T07:18:02;26.30;58.80
21489;DHT22;10906;45.194;5.684;2022-07-15T07:20:49;26.50;58.30
21489;DHT22;10906;45.194;5.684;2022-07-15T07:23:43;26.70;57.80
21489;DHT22;10906;45.194;5.684;2022-07-15T07:26:28;26.90;57.50
21489;DHT22;10906;45.194;5.684;2022-07-15T07:29:12;27.00;57.20
21489;DHT22;10906;45.194;5.684;2022-07-15T07:31:58;27.10;57.10
21489;DHT22;10906;45.194;5.684;2022-07-15T07:34:43;27.30;56.60
21489;DHT22;10906;45.194;5.684;2022-07-15T07:37:33;27.30;56.40
21489;DHT22;10906;45.194;5.684;2022-07-15T07:40:18;27.40;56.90
21489;DHT22;10906;45.194;5.684;2022-07-15T07:43:14;27.50;56.50
21489;DHT22;10906;45.194;5.684;2022-07-15T07:45:59;27.70;56.00
21489;DHT22;10906;45.194;5.684;2022-07-15T07:48:43;27.80;55.30
21489;DHT22;10906;45.194;5.684;2022-07-15T07:51:37;27.80;55.90
21489;DHT22;10906;45.194;5.684;2022-07-15T07:54:21;28.00;56.10
21489;DHT22;10906;45.194;5.684;2022-07-15T07:57:08;28.10;56.20
21489;DHT22;10906;45.194;5.684;2022-07-15T07:59:52;28.20;54.90
21489;DHT22;10906;45.194;5.684;2022-07-15T08:02:37;28.20;54.80
21489;DHT22;10906;45.194;5.684;2022-07-15T08:05:22;28.30;55.00
21489;DHT22;10906;45.194;5.684;2022-07-15T08:08:15;28.40;55.40
21489;DHT22;10906;45.194;5.684;2022-07-15T08:10:59;28.60;54.90
21489;DHT22;10906;45.194;5.684;2022-07-15T08:13:44;28.70;55.30
21489;DHT22;10906;45.194;5.684;2022-07-15T08:16:37;28.90;55.60
21489;DHT22;10906;45.194;5.684;2022-07-15T08:19:26;29.00;54.10
21489;DHT22;10906;45.194;5.684;2022-07-15T08:22:10;29.00;54.10
21489;DHT22;10906;45.194;5.684;2022-07-15T08:24:55;29.10;54.20
21489;DHT22;10906;45.194;5.684;2022-07-15T08:27:40;29.10;53.20
21489;DHT22;10906;45.194;5.684;2022-07-15T08:30:28;29.10;52.90
21489;DHT22;10906;45.194;5.684;2022-07-15T08:33:14;29.30;53.10
21489;DHT22;10906;45.194;5.684;2022-07-15T08:36:01;29.30;52.90
21489;DHT22;10906;45.194;5.684;2022-07-15T08:38:45;29.50;53.10
21489;DHT22;10906;45.194;5.684;2022-07-15T08:41:38;29.60;53.00
21489;DHT22;10906;45.194;5.684;2022-07-15T08:44:22;29.70;53.20
21489;DHT22;10906;45.194;5.684;2022-07-15T08:47:19;29.80;53.40
21489;DHT22;10906;45.194;5.684;2022-07-15T08:50:05;29.90;53.10
21489;DHT22;10906;45.194;5.684;2022-07-15T08:52:50;30.10;52.30
21489;DHT22;10906;45.194;5.684;2022-07-15T08:55:36;30.30;52.80
21489;DHT22;10906;45.194;5.684;2022-07-15T08:58:20;30.50;52.30
21489;DHT22;10906;45.194;5.684;2022-07-15T09:01:06;30.70;52.20
21489;DHT22;10906;45.194;5.684;2022-07-15T09:03:53;30.80;52.70
21489;DHT22;10906;45.194;5.684;2022-07-15T09:06:48;31.00;52.70
21489;DHT22;10906;45.194;5.684;2022-07-15T09:09:43;31.30;52.00
21489;DHT22;10906;45.194;5.684;2022-07-15T09:12:39;31.50;51.70
21489;DHT22;10906;45.194;5.684;2022-07-15T09:15:31;31.80;51.70
21489;DHT22;10906;45.194;5.684;2022-07-15T09:18:29;32.00;51.30
21489;DHT22;10906;45.194;5.684;2022-07-15T09:21:22;32.20;50.80
21489;DHT22;10906;45.194;5.684;2022-07-15T09:24:17;32.40;50.60
21489;DHT22;10906;45.194;5.684;2022-07-15T09:30:35;32.70;49.60
21489;DHT22;10906;45.194;5.684;2022-07-15T09:33:39;32.80;49.50
21489;DHT22;10906;45.194;5.684;2022-07-15T09:36:26;32.80;49.50
21489;DHT22;10906;45.194;5.684;2022-07-15T09:39:14;32.90;49.20
21489;DHT22;10906;45.194;5.684;2022-07-15T09:42:05;33.00;49.10
21489;DHT22;10906;45.194;5.684;2022-07-15T09:44:51;33.10;47.60
21489;DHT22;10906;45.194;5.684;2022-07-15T09:47:38;33.20;47.90
21489;DHT22;10906;45.194;5.684;2022-07-15T09:50:37;33.30;47.80
21489;DHT22;10906;45.194;5.684;2022-07-15T09:53:21;33.40;47.30
21489;DHT22;10906;45.194;5.684;2022-07-15T09:56:08;33.50;46.90
21489;DHT22;10906;45.194;5.684;2022-07-15T09:58:52;33.50;46.70
21489;DHT22;10906;45.194;5.684;2022-07-15T10:01:37;33.60;46.60
21489;DHT22;10906;45.194;5.684;2022-07-15T10:04:24;33.60;46.50
21489;DHT22;10906;45.194;5.684;2022-07-15T10:07:11;33.60;46.20
21489;DHT22;10906;45.194;5.684;2022-07-15T10:09:58;33.60;46.00
21489;DHT22;10906;45.194;5.684;2022-07-15T10:16:03;33.80;45.90
21489;DHT22;10906;45.194;5.684;2022-07-15T10:19:23;33.90;45.40
21489;DHT22;10906;45.194;5.684;2022-07-15T10:25:25;33.90;44.90
21489;DHT22;10906;45.194;5.684;2022-07-15T10:31:23;33.80;45.60
21489;DHT22;10906;45.194;5.684;2022-07-15T10:34:32;34.40;45.80
21489;DHT22;10906;45.194;5.684;2022-07-15T10:37:17;34.20;45.70
21489;DHT22;10906;45.194;5.684;2022-07-15T10:40:01;34.40;45.40
21489;DHT22;10906;45.194;5.684;2022-07-15T10:42:58;34.50;45.00
21489;DHT22;10906;45.194;5.684;2022-07-15T10:46:21;34.60;44.80
21489;DHT22;10906;45.194;5.684;2022-07-15T10:51:50;34.80;45.00
21489;DHT22;10906;45.194;5.684;2022-07-15T10:54:44;34.80;44.50
21489;DHT22;10906;45.194;5.684;2022-07-15T11:00:33;34.70;44.20
21489;DHT22;10906;45.194;5.684;2022-07-15T11:03:20;34.90;44.50
21489;DHT22;10906;45.194;5.684;2022-07-15T11:06:06;35.00;44.10
21489;DHT22;10906;45.194;5.684;2022-07-15T11:08:50;35.00;43.90
21489;DHT22;10906;45.194;5.684;2022-07-15T11:11:44;35.00;43.50
21489;DHT22;10906;45.194;5.684;2022-07-15T11:17:39;35.10;42.00
21489;DHT22;10906;45.194;5.684;2022-07-15T11:20:35;35.10;43.00
21489;DHT22;10906;45.194;5.684;2022-07-15T11:23:29;35.20;43.10
21489;DHT22;10906;45.194;5.684;2022-07-15T11:26:14;35.20;42.80
21489;DHT22;10906;45.194;5.684;2022-07-15T11:28:58;35.20;43.00
21489;DHT22;10906;45.194;5.684;2022-07-15T11:31:43;35.40;43.20
21489;DHT22;10906;45.194;5.684;2022-07-15T11:34:40;35.40;42.60
21489;DHT22;10906;45.194;5.684;2022-07-15T11:37:31;35.60;42.50
21489;DHT22;10906;45.194;5.684;2022-07-15T11:40:17;35.60;42.50
21489;DHT22;10906;45.194;5.684;2022-07-15T11:43:20;35.60;42.80
21489;DHT22;10906;45.194;5.684;2022-07-15T11:46:24;35.50;42.20
21489;DHT22;10906;45.194;5.684;2022-07-15T11:49:08;35.50;42.00
21489;DHT22;10906;45.194;5.684;2022-07-15T11:51:54;35.50;41.70
21489;DHT22;10906;45.194;5.684;2022-07-15T11:54:40;35.20;41.80
21489;DHT22;10906;45.194;5.684;2022-07-15T11:57:32;35.20;41.90
21489;DHT22;10906;45.194;5.684;2022-07-15T12:00:28;35.30;41.50
21489;DHT22;10906;45.194;5.684;2022-07-15T12:03:13;35.40;41.30
21489;DHT22;10906;45.194;5.684;2022-07-15T12:06:07;35.70;41.50
21489;DHT22;10906;45.194;5.684;2022-07-15T12:09:00;35.90;40.80
21489;DHT22;10906;45.194;5.684;2022-07-15T12:11:46;36.00;40.10
21489;DHT22;10906;45.194;5.684;2022-07-15T12:14:31;36.00;40.30
21489;DHT22;10906;45.194;5.684;2022-07-15T12:17:18;36.00;40.10
21489;DHT22;10906;45.194;5.684;2022-07-15T12:20:07;36.00;39.80
21489;DHT22;10906;45.194;5.684;2022-07-15T12:23:10;36.10;39.90
21489;DHT22;10906;45.194;5.684;2022-07-15T12:26:21;36.10;39.10
21489;DHT22;10906;45.194;5.684;2022-07-15T12:29:08;36.20;39.20
21489;DHT22;10906;45.194;5.684;2022-07-15T12:32:01;36.20;39.20
21489;DHT22;10906;45.194;5.684;2022-07-15T12:34:57;36.40;39.00
21489;DHT22;10906;45.194;5.684;2022-07-15T12:40:30;36.50;38.90
21489;DHT22;10906;45.194;5.684;2022-07-15T12:43:17;36.50;38.30
21489;DHT22;10906;45.194;5.684;2022-07-15T12:46:10;36.60;38.10
21489;DHT22;10906;45.194;5.684;2022-07-15T12:48:57;36.70;37.80
21489;DHT22;10906;45.194;5.684;2022-07-15T12:51:41;36.60;37.40
21489;DHT22;10906;45.194;5.684;2022-07-15T12:54:25;36.50;37.70
21489;DHT22;10906;45.194;5.684;2022-07-15T12:57:28;36.50;37.40
21489;DHT22;10906;45.194;5.684;2022-07-15T13:00:15;36.80;36.90
21489;DHT22;10906;45.194;5.684;2022-07-15T13:03:07;36.70;36.70
21489;DHT22;10906;45.194;5.684;2022-07-15T13:05:56;36.70;37.20
21489;DHT22;10906;45.194;5.684;2022-07-15T13:08:43;36.70;37.10
21489;DHT22;10906;45.194;5.684;2022-07-15T13:11:27;36.70;36.50
21489;DHT22;10906;45.194;5.684;2022-07-15T13:14:12;36.60;36.40
21489;DHT22;10906;45.194;5.684;2022-07-15T13:16:56;36.50;36.30
21489;DHT22;10906;45.194;5.684;2022-07-15T13:19:40;36.60;36.40
21489;DHT22;10906;45.194;5.684;2022-07-15T13:22:24;36.50;36.20
21489;DHT22;10906;45.194;5.684;2022-07-15T13:25:09;36.50;36.10
21489;DHT22;10906;45.194;5.684;2022-07-15T13:27:56;36.60;36.40
21489;DHT22;10906;45.194;5.684;2022-07-15T13:30:42;36.70;35.60
21489;DHT22;10906;45.194;5.684;2022-07-15T13:33:29;36.60;35.80
21489;DHT22;10906;45.194;5.684;2022-07-15T13:36:18;36.50;35.50
21489;DHT22;10906;45.194;5.684;2022-07-15T13:39:04;36.50;35.80
21489;DHT22;10906;45.194;5.684;2022-07-15T13:41:49;36.50;35.50
21489;DHT22;10906;45.194;5.684;2022-07-15T13:44:33;36.50;35.50
21489;DHT22;10906;45.194;5.684;2022-07-15T13:47:18;36.50;35.50
21489;DHT22;10906;45.194;5.684;2022-07-15T13:50:04;36.60;35.70
21489;DHT22;10906;45.194;5.684;2022-07-15T13:53:08;36.60;35.60
21489;DHT22;10906;45.194;5.684;2022-07-15T13:55:52;36.50;35.90
21489;DHT22;10906;45.194;5.684;2022-07-15T13:58:36;36.50;35.90
21489;DHT22;10906;45.194;5.684;2022-07-15T14:01:25;36.60;35.90
21489;DHT22;10906;45.194;5.684;2022-07-15T14:04:10;36.50;35.50
21489;DHT22;10906;45.194;5.684;2022-07-15T14:06:55;36.40;35.70
21489;DHT22;10906;45.194;5.684;2022-07-15T14:09:39;36.20;35.30
21489;DHT22;10906;45.194;5.684;2022-07-15T14:12:24;36.10;35.90
21489;DHT22;10906;45.194;5.684;2022-07-15T14:15:08;36.20;35.70
21489;DHT22;10906;45.194;5.684;2022-07-15T14:17:53;36.10;35.70
21489;DHT22;10906;45.194;5.684;2022-07-15T14:20:37;36.00;35.60
21489;DHT22;10906;45.194;5.684;2022-07-15T14:23:22;36.10;36.10
21489;DHT22;10906;45.194;5.684;2022-07-15T14:26:06;36.60;36.20
21489;DHT22;10906;45.194;5.684;2022-07-15T14:28:51;36.60;35.50
21489;DHT22;10906;45.194;5.684;2022-07-15T14:31:38;36.70;35.50
21489;DHT22;10906;45.194;5.684;2022-07-15T14:34:32;36.70;35.70
21489;DHT22;10906;45.194;5.684;2022-07-15T14:37:17;36.50;35.30
21489;DHT22;10906;45.194;5.684;2022-07-15T14:40:10;36.70;35.30
21489;DHT22;10906;45.194;5.684;2022-07-15T14:42:57;36.80;35.40
21489;DHT22;10906;45.194;5.684;2022-07-15T14:45:42;36.80;35.00
21489;DHT22;10906;45.194;5.684;2022-07-15T14:48:26;36.60;35.20
21489;DHT22;10906;45.194;5.684;2022-07-15T14:51:16;36.40;35.20
21489;DHT22;10906;45.194;5.684;2022-07-15T14:54:01;36.60;35.70
21489;DHT22;10906;45.194;5.684;2022-07-15T14:56:45;36.70;35.50
21489;DHT22;10906;45.194;5.684;2022-07-15T14:59:32;36.70;35.50
21489;DHT22;10906;45.194;5.684;2022-07-15T15:02:21;36.60;35.40
21489;DHT22;10906;45.194;5.684;2022-07-15T15:05:16;36.60;35.50
21489;DHT22;10906;45.194;5.684;2022-07-15T15:08:08;36.20;35.30
21489;DHT22;10906;45.194;5.684;2022-07-15T15:10:53;35.90;35.60
21489;DHT22;10906;45.194;5.684;2022-07-15T15:13:40;35.70;35.70
21489;DHT22;10906;45.194;5.684;2022-07-15T15:16:29;35.70;35.90
21489;DHT22;10906;45.194;5.684;2022-07-15T15:19:14;35.70;35.80
21489;DHT22;10906;45.194;5.684;2022-07-15T15:21:58;35.60;36.30
21489;DHT22;10906;45.194;5.684;2022-07-15T15:24:43;35.40;36.30
21489;DHT22;10906;45.194;5.684;2022-07-15T15:27:27;35.30;36.80
21489;DHT22;10906;45.194;5.684;2022-07-15T15:30:12;35.40;37.20
21489;DHT22;10906;45.194;5.684;2022-07-15T15:32:57;35.60;37.20
21489;DHT22;10906;45.194;5.684;2022-07-15T15:35:41;35.70;37.20
21489;DHT22;10906;45.194;5.684;2022-07-15T15:38:26;35.60;36.90
21489;DHT22;10906;45.194;5.684;2022-07-15T15:41:13;35.30;36.60
21489;DHT22;10906;45.194;5.684;2022-07-15T15:43:57;35.10;36.80
21489;DHT22;10906;45.194;5.684;2022-07-15T15:46:41;35.00;36.90
21489;DHT22;10906;45.194;5.684;2022-07-15T15:49:26;35.00;37.40
21489;DHT22;10906;45.194;5.684;2022-07-15T15:52:10;35.10;37.60
21489;DHT22;10906;45.194;5.684;2022-07-15T15:54:57;35.20;37.50
21489;DHT22;10906;45.194;5.684;2022-07-15T15:57:43;35.20;37.50
21489;DHT22;10906;45.194;5.684;2022-07-15T16:00:27;35.30;38.00
21489;DHT22;10906;45.194;5.684;2022-07-15T16:03:12;35.20;37.90
21489;DHT22;10906;45.194;5.684;2022-07-15T16:05:56;35.00;38.10
21489;DHT22;10906;45.194;5.684;2022-07-15T16:08:41;35.10;38.30
21489;DHT22;10906;45.194;5.684;2022-07-15T16:11:25;35.10;38.30
21489;DHT22;10906;45.194;5.684;2022-07-15T16:14:12;35.00;38.50
21489;DHT22;10906;45.194;5.684;2022-07-15T16:16:57;34.60;38.40
21489;DHT22;10906;45.194;5.684;2022-07-15T16:19:41;34.50;38.90
21489;DHT22;10906;45.194;5.684;2022-07-15T16:22:26;34.40;39.00
21489;DHT22;10906;45.194;5.684;2022-07-15T16:25:33;34.40;39.00
21489;DHT22;10906;45.194;5.684;2022-07-15T16:28:20;34.40;38.80
21489;DHT22;10906;45.194;5.684;2022-07-15T16:31:04;34.30;39.00
21489;DHT22;10906;45.194;5.684;2022-07-15T16:33:51;34.40;39.00
21489;DHT22;10906;45.194;5.684;2022-07-15T16:36:38;34.30;38.90
21489;DHT22;10906;45.194;5.684;2022-07-15T16:39:22;34.20;38.90
21489;DHT22;10906;45.194;5.684;2022-07-15T16:42:17;34.10;39.40
21489;DHT22;10906;45.194;5.684;2022-07-15T16:45:01;33.90;39.00
21489;DHT22;10906;45.194;5.684;2022-07-15T16:47:50;33.70;39.00
21489;DHT22;10906;45.194;5.684;2022-07-15T16:50:35;33.40;38.70
21489;DHT22;10906;45.194;5.684;2022-07-15T16:53:19;33.20;38.80
21489;DHT22;10906;45.194;5.684;2022-07-15T16:56:04;33.10;38.60
21489;DHT22;10906;45.194;5.684;2022-07-15T16:58:49;32.90;38.80
21489;DHT22;10906;45.194;5.684;2022-07-15T17:01:36;32.90;38.80
21489;DHT22;10906;45.194;5.684;2022-07-15T17:04:27;32.90;39.10
21489;DHT22;10906;45.194;5.684;2022-07-15T17:07:15;32.80;39.80
21489;DHT22;10906;45.194;5.684;2022-07-15T17:10:02;32.80;39.00
21489;DHT22;10906;45.194;5.684;2022-07-15T17:12:57;32.60;39.40
21489;DHT22;10906;45.194;5.684;2022-07-15T17:15:41;32.50;39.30
21489;DHT22;10906;45.194;5.684;2022-07-15T17:18:26;32.50;39.30
21489;DHT22;10906;45.194;5.684;2022-07-15T17:21:11;32.40;39.30
21489;DHT22;10906;45.194;5.684;2022-07-15T17:23:55;32.30;39.30
21489;DHT22;10906;45.194;5.684;2022-07-15T17:26:43;32.30;39.40
21489;DHT22;10906;45.194;5.684;2022-07-15T17:29:30;32.20;39.30
21489;DHT22;10906;45.194;5.684;2022-07-15T17:32:22;32.20;39.50
21489;DHT22;10906;45.194;5.684;2022-07-15T17:35:09;32.10;39.80
21489;DHT22;10906;45.194;5.684;2022-07-15T17:37:56;32.00;39.70
21489;DHT22;10906;45.194;5.684;2022-07-15T17:40:41;30.90;39.30
21489;DHT22;10906;45.194;5.684;2022-07-15T17:43:27;31.70;40.20
21489;DHT22;10906;45.194;5.684;2022-07-15T17:46:12;31.60;40.10
21489;DHT22;10906;45.194;5.684;2022-07-15T17:48:56;31.50;40.00
21489;DHT22;10906;45.194;5.684;2022-07-15T17:51:41;31.40;40.00
21489;DHT22;10906;45.194;5.684;2022-07-15T17:54:25;31.30;40.00
21489;DHT22;10906;45.194;5.684;2022-07-15T17:57:10;31.20;40.10
21489;DHT22;10906;45.194;5.684;2022-07-15T17:59:57;31.10;40.00
21489;DHT22;10906;45.194;5.684;2022-07-15T18:02:49;31.10;40.00
21489;DHT22;10906;45.194;5.684;2022-07-15T18:05:36;31.00;39.80
21489;DHT22;10906;45.194;5.684;2022-07-15T18:08:22;30.90;39.80
21489;DHT22;10906;45.194;5.684;2022-07-15T18:11:15;30.90;40.00
21489;DHT22;10906;45.194;5.684;2022-07-15T18:14:03;30.80;39.90
21489;DHT22;10906;45.194;5.684;2022-07-15T18:16:47;30.70;40.00
21489;DHT22;10906;45.194;5.684;2022-07-15T18:19:32;30.70;40.20
21489;DHT22;10906;45.194;5.684;2022-07-15T18:22:16;30.70;40.30
21489;DHT22;10906;45.194;5.684;2022-07-15T18:25:01;30.60;40.20
21489;DHT22;10906;45.194;5.684;2022-07-15T18:27:45;30.60;40.30
21489;DHT22;10906;45.194;5.684;2022-07-15T18:30:37;30.50;40.20
21489;DHT22;10906;45.194;5.684;2022-07-15T18:33:24;30.50;40.30
21489;DHT22;10906;45.194;5.684;2022-07-15T18:36:16;30.40;40.30
21489;DHT22;10906;45.194;5.684;2022-07-15T18:39:01;30.40;40.20
21489;DHT22;10906;45.194;5.684;2022-07-15T18:41:46;30.30;40.30
21489;DHT22;10906;45.194;5.684;2022-07-15T18:44:30;30.20;40.40
21489;DHT22;10906;45.194;5.684;2022-07-15T18:47:14;30.20;40.50
21489;DHT22;10906;45.194;5.684;2022-07-15T18:49:58;30.10;40.50
21489;DHT22;10906;45.194;5.684;2022-07-15T18:52:45;30.00;40.50
21489;DHT22;10906;45.194;5.684;2022-07-15T18:55:30;30.00;40.60
21489;DHT22;10906;45.194;5.684;2022-07-15T18:58:23;30.00;41.00
21489;DHT22;10906;45.194;5.684;2022-07-15T19:01:17;29.90;41.40
21489;DHT22;10906;45.194;5.684;2022-07-15T19:04:04;29.90;41.40
21489;DHT22;10906;45.194;5.684;2022-07-15T19:06:51;29.80;41.60
21489;DHT22;10906;45.194;5.684;2022-07-15T19:09:35;29.80;41.70
21489;DHT22;10906;45.194;5.684;2022-07-15T19:12:29;29.70;41.80
21489;DHT22;10906;45.194;5.684;2022-07-15T19:15:21;29.60;41.10
21489;DHT22;10906;45.194;5.684;2022-07-15T19:18:08;29.60;41.10
21489;DHT22;10906;45.194;5.684;2022-07-15T19:20:56;29.60;41.20
21489;DHT22;10906;45.194;5.684;2022-07-15T19:23:40;29.50;41.30
21489;DHT22;10906;45.194;5.684;2022-07-15T19:26:25;29.40;41.20
21489;DHT22;10906;45.194;5.684;2022-07-15T19:29:12;29.40;41.20
21489;DHT22;10906;45.194;5.684;2022-07-15T19:31:56;29.30;41.70
21489;DHT22;10906;45.194;5.684;2022-07-15T19:34:41;29.30;41.40
21489;DHT22;10906;45.194;5.684;2022-07-15T19:37:26;29.20;41.40
21489;DHT22;10906;45.194;5.684;2022-07-15T19:40:11;29.10;41.90
21489;DHT22;10906;45.194;5.684;2022-07-15T19:42:56;29.10;41.80
21489;DHT22;10906;45.194;5.684;2022-07-15T19:45:45;29.00;41.90
21489;DHT22;10906;45.194;5.684;2022-07-15T19:48:30;28.40;41.90
21489;DHT22;10906;45.194;5.684;2022-07-15T19:51:22;28.80;42.50
21489;DHT22;10906;45.194;5.684;2022-07-15T19:54:17;28.80;42.80
21489;DHT22;10906;45.194;5.684;2022-07-15T19:57:02;28.70;42.90
21489;DHT22;10906;45.194;5.684;2022-07-15T19:59:54;29.10;43.80
21489;DHT22;10906;45.194;5.684;2022-07-15T20:03:03;28.60;43.40
21489;DHT22;10906;45.194;5.684;2022-07-15T20:05:50;28.50;43.40
21489;DHT22;10906;45.194;5.684;2022-07-15T20:08:42;28.50;43.40
21489;DHT22;10906;45.194;5.684;2022-07-15T20:11:30;28.40;43.50
21489;DHT22;10906;45.194;5.684;2022-07-15T20:14:18;28.40;43.90
21489;DHT22;10906;45.194;5.684;2022-07-15T20:17:07;28.30;44.30
21489;DHT22;10906;45.194;5.684;2022-07-15T20:19:59;28.30;44.60
21489;DHT22;10906;45.194;5.684;2022-07-15T20:22:47;28.20;44.50
21489;DHT22;10906;45.194;5.684;2022-07-15T20:25:34;28.20;44.50
21489;DHT22;10906;45.194;5.684;2022-07-15T20:28:18;28.10;44.60
21489;DHT22;10906;45.194;5.684;2022-07-15T20:31:03;28.00;44.90
21489;DHT22;10906;45.194;5.684;2022-07-15T20:33:47;26.80;44.40
21489;DHT22;10906;45.194;5.684;2022-07-15T20:36:32;27.90;45.40
21489;DHT22;10906;45.194;5.684;2022-07-15T20:39:20;27.80;45.60
21489;DHT22;10906;45.194;5.684;2022-07-15T20:42:07;27.60;45.90
21489;DHT22;10906;45.194;5.684;2022-07-15T20:44:51;27.50;46.20
21489;DHT22;10906;45.194;5.684;2022-07-15T20:47:43;27.40;47.80
21489;DHT22;10906;45.194;5.684;2022-07-15T20:50:39;27.40;46.90
21489;DHT22;10906;45.194;5.684;2022-07-15T20:53:24;27.30;46.80
21489;DHT22;10906;45.194;5.684;2022-07-15T20:56:09;27.20;46.90
21489;DHT22;10906;45.194;5.684;2022-07-15T20:58:55;27.10;47.00
21489;DHT22;10906;45.194;5.684;2022-07-15T21:01:39;27.10;47.20
21489;DHT22;10906;45.194;5.684;2022-07-15T21:04:26;27.00;47.60
21489;DHT22;10906;45.194;5.684;2022-07-15T21:07:16;26.90;48.60
21489;DHT22;10906;45.194;5.684;2022-07-15T21:10:09;26.80;47.80
21489;DHT22;10906;45.194;5.684;2022-07-15T21:12:57;26.70;48.40
21489;DHT22;10906;45.194;5.684;2022-07-15T21:15:44;26.80;48.60
21489;DHT22;10906;45.194;5.684;2022-07-15T21:18:30;26.70;48.90
21489;DHT22;10906;45.194;5.684;2022-07-15T21:21:22;26.70;49.30
21489;DHT22;10906;45.194;5.684;2022-07-15T21:24:09;26.70;49.00
21489;DHT22;10906;45.194;5.684;2022-07-15T21:27:12;26.70;48.60
21489;DHT22;10906;45.194;5.684;2022-07-15T21:29:57;26.60;48.30
21489;DHT22;10906;45.194;5.684;2022-07-15T21:32:41;26.60;48.60
21489;DHT22;10906;45.194;5.684;2022-07-15T21:35:28;26.60;48.60
21489;DHT22;10906;45.194;5.684;2022-07-15T21:38:15;26.60;48.90
21489;DHT22;10906;45.194;5.684;2022-07-15T21:41:00;26.50;49.00
21489;DHT22;10906;45.194;5.684;2022-07-15T21:43:54;26.50;49.20
21489;DHT22;10906;45.194;5.684;2022-07-15T21:46:41;26.50;48.70
21489;DHT22;10906;45.194;5.684;2022-07-15T21:49:29;26.50;49.60
21489;DHT22;10906;45.194;5.684;2022-07-15T21:52:16;26.40;49.50
21489;DHT22;10906;45.194;5.684;2022-07-15T21:55:06;26.40;49.50
21489;DHT22;10906;45.194;5.684;2022-07-15T21:57:58;26.40;48.90
